Pingree, ID (83262)

4:48 PM MST on February 14, 2016 (GMT -0700)
MyIdahoWeather.com | | Change Station
CLOSE
Current Station
Personal Weather Station
Location: Blackfoot, ID
Elevation: 4534 ft
Nearby Weather Stations
Active Advisory: Wind Advisory

Elev 4534 ft 43.27 °N, 112.52 °W | Updated 1 second ago

Overcast
Overcast
34.8 °F
Feels Like 23 °F
N
22.0
Wind Variable Wind from SSW
Gusts 24.2 mph

Today
High -- | Low -- °F
--% Chance of Precip.
Yesterday
High -- | Low -- °F
Precip. -- in
Pressure 30.19 in
Visibility 10.0 miles
Clouds Overcast 1000 ft
Windchill 23 °F
Dew Point 32 °F
Humidity 89%
Rainfall 0.00 in
Snow Depth Not available.
7:30 AM 5:59 PM
Waxing Crescent, 46% visible
SPECI KPIH 142319Z 24011G20KT 10SM OVC010 03/02 A3019 RMK AO2 CIG 007V014 T00330017
Pressure 30.19 in
Visibility 10.0 miles
Clouds Overcast 1000 ft
Windchill 23 °F
Dew Point 32 °F
Humidity 89%
Rainfall 0.00 in
Snow Depth Not available.
7:30 AM 5:59 PM
Waxing Crescent, 46% visible
SPECI KPIH 142319Z 24011G20KT 10SM OVC010 03/02 A3019 RMK AO2 CIG 007V014 T00330017

10-Day Weather Forecast

Almanac

Astronomy

Feb. 14, 2016 Rise Set
Actual Time
Civil Twilight
Nautical Twilight
Astronomical Twilight
Moon
Length of Visible Light
Length of Day
Tomorrow will be .
, % of the Moon is Illuminated

Today's Extremes

State Highs State Lows

Community

WunderPhotos

Upload Photos

1,892,929 photos uploaded!

WunderBlog® & News

Nearby

Air Quality

  Air Quality AQ Index Pollutant
Not available.

Snow Depth

Station Depth Elevation

Earthquake Activity

City Distance Mag. Time & Date
Minimum magnitude displayed is 2.5.

Coastal Water Temperatures

Place Temperature

Stations

Nearby Weather Stations

Station Location Temp. Windchill Dew Point Humidity Wind Precip. Elev Updated Type
                   

Watches & Warnings

Wind Advisory
Issued: 11:25 AM MST Feb. 14, 2016 – National Weather Service

... Wind Advisory in effect from 9 am to 7 PM MST Monday...

The National Weather Service in Pocatello has issued a Wind
Advisory... which is in effect from 9 am to 7 PM MST Monday.

* Timing... winds increasing Monday morning and continuing through
early Monday evening.

* Winds... southwest winds at 25 to 35 mph with gusts to 45 mph.

* Impacts... difficult driving conditions... especially for high
profile vehicles. Strong Crosswinds can be expected on highways
crossing the Snake River Plain such as US 20 and 26... and I-15
north of Idaho Falls.

Precautionary/preparedness actions...

A Wind Advisory means that winds of 30 mph are expected. Gusts
over 45 mph are possible. Winds this strong can make driving
difficult... especially for high profile vehicles. Use extra
caution.